Time,TemperatureF,DewpointF,PressureIn,WindDirection,WindDirectionDegrees,WindSpeedMPH,WindSpeedGustMPH,Humidity,HourlyPrecipIn,Conditions,Clouds,dailyrainin,SoftwareType,DateUTC
2013-12-19 00:08:00,42.1,35.0,28.87,South,180,4.9,14.8,76,0.00,,,0.00,WeatherCatV1.23B14,2013-12-19 00:08:00,
2013-12-19 00:18:00,42.1,35.0,28.87,SE,135,9.6,9.6,76,0.00,,,0.00,WeatherCatV1.23B14,2013-12-19 00:18:00,
2013-12-19 00:28:00,41.9,35.0,28.87,SW,225,1.8,1.8,77,0.00,,,0.00,WeatherCatV1.23B14,2013-12-19 00:28:00,
2013-12-19 00:38:00,41.5,34.8,28.89,ENE,67,2.5,2.5,77,0.00,,,0.00,WeatherCatV1.23B14,2013-12-19 00:38:00,
2013-12-19 00:48:00,41.5,35.1,28.89,West,270,6.7,6.7,78,0.00,,,0.00,WeatherCatV1.23B14,2013-12-19 00:48:00,
2013-12-19 00:58:00,41.5,34.8,28.90,WSW,247,0.0,8.9,77,0.00,,,0.00,WeatherCatV1.23B14,2013-12-19 00:58:00,
2013-12-19 01:08:00,41.7,35.0,28.90,WNW,292,0.0,0.0,77,0.00,,,0.00,WeatherCatV1.23B14,2013-12-19 01:08:00,
2013-12-19 01:18:00,41.5,35.1,28.90,SE,135,0.0,0.0,78,0.00,,,0.00,WeatherCatV1.23B14,2013-12-19 01:18:00,
2013-12-19 01:28:00,41.5,34.8,28.91,SSE,157,0.0,0.0,77,0.00,,,0.00,WeatherCatV1.23B14,2013-12-19 01:28:00,
2013-12-19 01:38:00,41.4,35.6,28.92,ENE,67,0.0,3.6,80,0.00,,,0.00,WeatherCatV1.23B14,2013-12-19 01:38:00,
2013-12-19 01:48:00,41.0,35.2,28.92,South,180,0.0,0.0,80,0.00,,,0.00,WeatherCatV1.23B14,2013-12-19 01:48:00,
2013-12-19 01:58:00,40.6,35.2,28.94,SE,135,0.0,0.0,81,0.00,,,0.00,WeatherCatV1.23B14,2013-12-19 01:58:00,
2013-12-19 02:08:00,39.6,34.8,28.94,SE,135,4.2,4.2,83,0.00,,,0.00,WeatherCatV1.23B14,2013-12-19 02:08:00,
2013-12-19 02:18:00,39.6,35.1,28.95,WNW,292,0.0,3.4,84,0.02,,,0.02,WeatherCatV1.23B14,2013-12-19 02:18:00,
2013-12-19 02:28:00,39.6,34.8,28.95,South,180,8.5,8.5,83,0.02,,,0.02,WeatherCatV1.23B14,2013-12-19 02:28:00,
2013-12-19 02:38:00,39.9,34.6,28.96,SSE,157,0.0,4.9,81,0.02,,,0.02,WeatherCatV1.23B14,2013-12-19 02:38:00,
2013-12-19 02:48:00,39.9,34.3,28.96,SW,225,5.4,5.4,80,0.02,,,0.02,WeatherCatV1.23B14,2013-12-19 02:48:00,
2013-12-19 02:58:00,39.9,34.3,28.97,ESE,112,11.4,11.4,80,0.02,,,0.02,WeatherCatV1.23B14,2013-12-19 02:58:00,
2013-12-19 03:08:00,39.9,34.6,28.98,South,180,2.5,2.5,81,0.02,,,0.02,WeatherCatV1.23B14,2013-12-19 03:08:00,
2013-12-19 03:18:00,39.0,34.9,29.00,SE,135,0.0,6.5,84,0.00,,,0.02,WeatherCatV1.23B14,2013-12-19 03:18:00,
2013-12-19 03:28:00,37.8,33.9,29.00,SE,135,4.5,4.5,86,0.02,,,0.04,WeatherCatV1.23B14,2013-12-19 03:28:00,
2013-12-19 03:38:00,37.6,34.0,29.01,ESE,112,5.4,5.4,87,0.02,,,0.04,WeatherCatV1.23B14,2013-12-19 03:38:00,
2013-12-19 03:48:00,37.4,33.5,29.01,SE,135,5.6,5.6,86,0.02,,,0.04,WeatherCatV1.23B14,2013-12-19 03:48:00,
2013-12-19 03:58:00,37.4,33.3,29.01,SSE,157,0.0,0.0,85,0.02,,,0.04,WeatherCatV1.23B14,2013-12-19 03:58:00,
2013-12-19 04:08:00,38.1,33.2,29.02,SE,135,3.1,6.0,82,0.02,,,0.04,WeatherCatV1.23B14,2013-12-19 04:08:00,
2013-12-19 04:18:00,38.5,32.9,29.03,SW,225,0.0,0.0,80,0.02,,,0.04,WeatherCatV1.23B14,2013-12-19 04:18:00,
2013-12-19 04:28:00,38.8,33.3,29.03,SE,135,1.3,3.1,80,0.00,,,0.04,WeatherCatV1.23B14,2013-12-19 04:28:00,
2013-12-19 04:38:00,38.8,33.3,29.04,SW,225,0.0,3.8,80,0.00,,,0.04,WeatherCatV1.23B14,2013-12-19 04:38:00,
2013-12-19 04:48:00,38.5,32.9,29.06,ESE,112,0.0,3.6,80,0.00,,,0.04,WeatherCatV1.23B14,2013-12-19 04:48:00,
2013-12-19 04:58:00,38.5,32.9,29.06,North,0,0.0,4.0,80,0.00,,,0.04,WeatherCatV1.23B14,2013-12-19 04:58:00,
2013-12-19 05:08:00,38.5,32.9,29.05,West,270,0.0,0.0,80,0.00,,,0.04,WeatherCatV1.23B14,2013-12-19 05:08:00,
2013-12-19 05:18:00,38.3,33.0,29.06,North,0,5.1,5.1,81,0.00,,,0.04,WeatherCatV1.23B14,2013-12-19 05:18:00,
2013-12-19 05:28:00,38.1,32.5,29.08,WSW,247,5.1,5.1,80,0.00,,,0.04,WeatherCatV1.23B14,2013-12-19 05:28:00,
2013-12-19 05:38:00,37.9,32.4,29.08,SSE,157,1.8,5.4,80,0.00,,,0.04,WeatherCatV1.23B14,2013-12-19 05:38:00,
2013-12-19 05:48:00,37.9,32.4,29.09,SW,225,5.1,5.1,80,0.00,,,0.04,WeatherCatV1.23B14,2013-12-19 05:48:00,
2013-12-19 05:58:00,38.1,32.2,29.10,ESE,112,5.1,5.1,79,0.00,,,0.04,WeatherCatV1.23B14,2013-12-19 05:58:00,
2013-12-19 06:08:00,38.3,32.4,29.11,SE,135,6.7,6.7,79,0.00,,,0.04,WeatherCatV1.23B14,2013-12-19 06:08:00,
2013-12-19 06:18:00,37.9,31.7,29.11,WNW,292,0.0,4.5,78,0.00,,,0.04,WeatherCatV1.23B14,2013-12-19 06:18:00,
2013-12-19 06:28:00,37.9,31.7,29.12,SSE,157,0.0,0.0,78,0.00,,,0.04,WeatherCatV1.23B14,2013-12-19 06:28:00,
2013-12-19 06:38:00,38.1,31.9,29.13,ESE,112,0.0,0.0,78,0.00,,,0.04,WeatherCatV1.23B14,2013-12-19 06:38:00,
2013-12-19 06:48:00,38.1,32.2,29.13,SSW,202,0.0,11.9,79,0.00,,,0.04,WeatherCatV1.23B14,2013-12-19 06:48:00,
2013-12-19 06:58:00,38.3,32.0,29.13,WNW,292,0.0,4.0,78,0.00,,,0.04,WeatherCatV1.23B14,2013-12-19 06:58:00,
2013-12-19 07:08:00,37.8,31.5,29.13,SW,225,0.0,0.0,78,0.00,,,0.04,WeatherCatV1.23B14,2013-12-19 07:08:00,
2013-12-19 07:18:00,37.2,31.3,29.14,ENE,67,2.0,2.5,79,0.00,,,0.04,WeatherCatV1.23B14,2013-12-19 07:18:00,
2013-12-19 07:28:00,37.0,31.1,29.16,SSE,157,2.0,8.3,79,0.00,,,0.04,WeatherCatV1.23B14,2013-12-19 07:28:00,
2013-12-19 07:38:00,36.9,31.0,29.17,SE,135,0.0,7.4,79,0.00,,,0.04,WeatherCatV1.23B14,2013-12-19 07:38:00,
2013-12-19 07:48:00,36.5,30.6,29.17,West,270,0.0,0.9,79,0.00,,,0.04,WeatherCatV1.23B14,2013-12-19 07:48:00,
2013-12-19 07:55:00,36.0,30.4,29.18,WSW,247,0.0,4.3,80,0.00,,,0.00,WeatherCatV1.23B14,2013-12-19 07:55:00,
2013-12-19 07:58:00,36.0,30.4,29.18,West,270,0.0,0.0,80,0.00,,,0.04,WeatherCatV1.23B14,2013-12-19 07:58:00,
2013-12-19 08:00:00,36.0,30.7,29.18,SW,215,0.9,2.7,81,0.00,,,0.00,WeatherCatV1.23B14,2013-12-19 08:00:00,
2013-12-19 08:05:00,35.8,30.5,29.20,SSW,196,0.0,5.1,81,0.00,,,0.00,WeatherCatV1.23B14,2013-12-19 08:05:00,
2013-12-19 08:10:00,35.8,30.5,29.20,SSW,196,0.0,5.1,81,0.00,,,0.00,WeatherCatV1.23B14,2013-12-19 08:10:00,
2013-12-19 08:15:00,35.8,30.5,29.20,SSW,196,0.0,5.1,81,0.00,,,0.00,WeatherCatV1.23B14,2013-12-19 08:15:00,
2013-12-19 08:20:00,35.8,30.5,29.20,SSW,196,0.0,5.1,81,0.00,,,0.00,WeatherCatV1.23B14,2013-12-19 08:20:00,
2013-12-19 08:25:00,35.8,30.5,29.20,South,188,0.0,0.0,81,0.00,,,0.00,WeatherCatV1.23B14,2013-12-19 08:25:00,
2013-12-19 08:36:00,35.8,30.8,29.20,SE,139,0.7,1.3,82,0.00,,,0.00,WeatherCatV1.23B14,2013-12-19 08:36:00,
2013-12-19 08:46:00,35.8,30.8,29.22,SE,135,0.0,4.9,82,0.00,,,0.04,WeatherCatV1.23B14,2013-12-19 08:46:00,
2013-12-19 08:56:00,35.8,30.8,29.22,SSE,157,0.0,2.0,82,0.00,,,0.04,WeatherCatV1.23B14,2013-12-19 08:56:00,
2013-12-19 09:06:00,36.0,31.0,29.23,SSE,157,0.0,3.8,82,0.00,,,0.04,WeatherCatV1.23B14,2013-12-19 09:06:00,
2013-12-19 09:16:00,36.3,31.3,29.23,SSW,202,0.0,6.0,82,0.00,,,0.04,WeatherCatV1.23B14,2013-12-19 09:16:00,
2013-12-19 09:26:00,36.5,31.5,29.23,NW,315,0.0,1.6,82,0.00,,,0.04,WeatherCatV1.23B14,2013-12-19 09:26:00,
2013-12-19 09:36:00,36.7,31.4,29.23,NW,315,2.5,2.5,81,0.00,,,0.04,WeatherCatV1.23B14,2013-12-19 09:36:00,
2013-12-19 09:46:00,36.3,31.0,29.23,NW,315,0.0,0.0,81,0.00,,,0.04,WeatherCatV1.23B14,2013-12-19 09:46:00,
2013-12-19 09:56:00,36.0,30.7,29.23,NW,315,0.0,0.0,81,0.00,,,0.04,WeatherCatV1.23B14,2013-12-19 09:56:00,
2013-12-19 10:06:00,35.8,30.5,29.24,WSW,247,0.0,3.6,81,0.00,,,0.04,WeatherCatV1.23B14,2013-12-19 10:06:00,
2013-12-19 10:16:00,36.1,30.9,29.24,WSW,247,0.0,0.0,81,0.00,,,0.04,WeatherCatV1.23B14,2013-12-19 10:16:00,
2013-12-19 10:26:00,36.7,31.1,29.24,West,270,0.0,1.6,80,0.00,,,0.04,WeatherCatV1.23B14,2013-12-19 10:26:00,
2013-12-19 10:36:00,36.9,31.3,29.25,WNW,292,0.0,0.0,80,0.00,,,0.04,WeatherCatV1.23B14,2013-12-19 10:36:00,
2013-12-19 10:46:00,37.4,31.5,29.25,SW,225,0.0,2.2,79,0.00,,,0.04,WeatherCatV1.23B14,2013-12-19 10:46:00,
2013-12-19 10:56:00,37.9,31.7,29.25,SW,225,0.0,1.1,78,0.00,,,0.04,WeatherCatV1.23B14,2013-12-19 10:56:00,
2013-12-19 11:06:00,37.8,31.5,29.25,SE,135,0.9,0.9,78,0.00,,,0.04,WeatherCatV1.23B14,2013-12-19 11:06:00,
2013-12-19 11:16:00,37.6,31.3,29.26,South,180,0.0,2.7,78,0.00,,,0.04,WeatherCatV1.23B14,2013-12-19 11:16:00,
2013-12-19 11:26:00,38.1,31.5,29.27,SE,135,1.8,3.1,77,0.00,,,0.04,WeatherCatV1.23B14,2013-12-19 11:26:00,
2013-12-19 11:36:00,38.3,31.7,29.26,SSE,157,0.0,0.0,77,0.00,,,0.04,WeatherCatV1.23B14,2013-12-19 11:36:00,
2013-12-19 11:46:00,38.7,31.7,29.27,ESE,112,12.1,12.1,76,0.00,,,0.04,WeatherCatV1.23B14,2013-12-19 11:46:00,
2013-12-19 11:56:00,38.7,31.7,29.27,SE,135,0.0,3.8,76,0.00,,,0.04,WeatherCatV1.23B14,2013-12-19 11:56:00,
2013-12-19 12:06:00,38.8,32.2,29.27,East,90,0.0,2.5,77,0.00,,,0.04,WeatherCatV1.23B14,2013-12-19 12:06:00,
2013-12-19 12:16:00,39.0,32.4,29.27,NW,315,0.0,4.5,77,0.00,,,0.04,WeatherCatV1.23B14,2013-12-19 12:16:00,
2013-12-19 12:26:00,39.0,32.4,29.27,South,180,0.0,0.9,77,0.00,,,0.04,WeatherCatV1.23B14,2013-12-19 12:26:00,
2013-12-19 12:36:00,39.0,32.4,29.27,South,180,0.0,1.8,77,0.00,,,0.04,WeatherCatV1.23B14,2013-12-19 12:36:00,
2013-12-19 12:46:00,39.2,32.6,29.27,SE,135,0.0,3.8,77,0.00,,,0.04,WeatherCatV1.23B14,2013-12-19 12:46:00,
2013-12-19 12:56:00,39.4,32.8,29.27,East,90,2.0,2.0,77,0.00,,,0.04,WeatherCatV1.23B14,2013-12-19 12:56:00,
2013-12-19 13:06:00,39.4,32.4,29.27,ENE,67,2.9,2.9,76,0.00,,,0.04,WeatherCatV1.23B14,2013-12-19 13:06:00,
2013-12-19 13:16:00,39.4,32.4,29.27,SE,135,2.0,2.0,76,0.00,,,0.04,WeatherCatV1.23B14,2013-12-19 13:16:00,
2013-12-19 13:26:00,39.4,32.4,29.27,WNW,292,0.9,3.1,76,0.00,,,0.04,WeatherCatV1.23B14,2013-12-19 13:26:00,
2013-12-19 13:36:00,39.4,32.4,29.27,ESE,112,0.9,0.9,76,0.00,,,0.04,WeatherCatV1.23B14,2013-12-19 13:36:00,
2013-12-19 13:46:00,38.8,32.2,29.27,West,270,3.1,4.5,77,0.00,,,0.04,WeatherCatV1.23B14,2013-12-19 13:46:00,
2013-12-19 13:56:00,38.3,31.7,29.27,NNE,22,0.0,5.8,77,0.00,,,0.04,WeatherCatV1.23B14,2013-12-19 13:56:00,
2013-12-19 14:06:00,38.1,31.5,29.28,SSE,157,0.0,4.9,77,0.00,,,0.04,WeatherCatV1.23B14,2013-12-19 14:06:00,
2013-12-19 14:16:00,37.9,31.4,29.28,South,180,0.0,1.6,77,0.00,,,0.04,WeatherCatV1.23B14,2013-12-19 14:16:00,
2013-12-19 14:26:00,37.8,31.2,29.27,South,180,0.0,0.9,77,0.00,,,0.04,WeatherCatV1.23B14,2013-12-19 14:26:00,
2013-12-19 14:36:00,37.8,31.0,29.28,SE,135,4.5,4.5,77,0.00,,,0.04,WeatherCatV1.23B14,2013-12-19 14:36:00,
2013-12-19 14:46:00,37.6,31.0,29.29,SE,135,0.0,3.6,77,0.00,,,0.04,WeatherCatV1.23B14,2013-12-19 14:46:00,
2013-12-19 14:56:00,37.2,30.7,29.29,SE,135,0.0,4.0,77,0.00,,,0.04,WeatherCatV1.23B14,2013-12-19 14:56:00,
2013-12-19 15:06:00,37.2,30.7,29.30,SSE,157,1.1,1.8,77,0.00,,,0.04,WeatherCatV1.23B14,2013-12-19 15:06:00,
2013-12-19 15:16:00,37.2,30.7,29.30,SSW,202,0.0,2.0,77,0.00,,,0.04,WeatherCatV1.23B14,2013-12-19 15:16:00,
2013-12-19 15:26:00,36.9,30.3,29.30,SE,135,0.0,0.0,77,0.00,,,0.04,WeatherCatV1.23B14,2013-12-19 15:26:00,
2013-12-19 15:36:00,36.5,30.3,29.30,SSW,202,0.0,1.6,78,0.00,,,0.04,WeatherCatV1.23B14,2013-12-19 15:36:00,
2013-12-19 15:46:00,36.1,29.9,29.31,SW,225,1.6,1.6,78,0.00,,,0.04,WeatherCatV1.23B14,2013-12-19 15:46:00,
2013-12-19 15:56:00,36.0,30.1,29.31,SW,225,1.3,2.7,79,0.00,,,0.04,WeatherCatV1.23B14,2013-12-19 15:56:00,
2013-12-19 16:06:00,36.1,30.2,29.32,SSE,157,0.0,0.0,79,0.00,,,0.04,WeatherCatV1.23B14,2013-12-19 16:06:00,
2013-12-19 16:16:00,35.6,29.7,29.33,South,180,3.1,3.1,79,0.00,,,0.04,WeatherCatV1.23B14,2013-12-19 16:16:00,
2013-12-19 16:26:00,35.8,30.2,29.34,SSE,157,0.0,5.4,80,0.00,,,0.04,WeatherCatV1.23B14,2013-12-19 16:26:00,
2013-12-19 16:36:00,36.5,30.6,29.34,SSE,157,0.0,7.6,79,0.00,,,0.04,WeatherCatV1.23B14,2013-12-19 16:36:00,
2013-12-19 16:46:00,36.9,31.0,29.35,NNW,337,0.0,2.0,79,0.00,,,0.04,WeatherCatV1.23B14,2013-12-19 16:46:00,
2013-12-19 16:56:00,37.4,31.2,29.35,SE,135,1.8,1.8,78,0.00,,,0.04,WeatherCatV1.23B14,2013-12-19 16:56:00,
2013-12-19 17:06:00,37.4,30.9,29.35,SSE,157,0.0,0.0,77,0.00,,,0.04,WeatherCatV1.23B14,2013-12-19 17:06:00,
2013-12-19 17:16:00,37.2,30.7,29.35,ENE,67,0.0,6.0,77,0.00,,,0.04,WeatherCatV1.23B14,2013-12-19 17:16:00,
2013-12-19 17:26:00,36.5,30.3,29.35,SE,135,5.6,5.6,78,0.00,,,0.04,WeatherCatV1.23B14,2013-12-19 17:26:00,
2013-12-19 17:36:00,36.3,30.1,29.35,SE,135,0.0,4.5,78,0.00,,,0.04,WeatherCatV1.23B14,2013-12-19 17:36:00,
2013-12-19 17:46:00,36.3,30.1,29.35,West,270,0.0,0.0,78,0.00,,,0.04,WeatherCatV1.23B14,2013-12-19 17:46:00,
2013-12-19 17:56:00,36.1,29.9,29.35,SSE,157,0.0,4.2,78,0.00,,,0.04,WeatherCatV1.23B14,2013-12-19 17:56:00,
2013-12-19 18:06:00,36.1,30.2,29.35,East,90,2.2,2.9,79,0.00,,,0.04,WeatherCatV1.23B14,2013-12-19 18:06:00,
2013-12-19 18:16:00,36.1,30.2,29.35,WSW,247,0.9,5.1,79,0.00,,,0.04,WeatherCatV1.23B14,2013-12-19 18:16:00,
2013-12-19 18:26:00,36.1,30.6,29.35,SSE,157,0.0,3.8,80,0.00,,,0.04,WeatherCatV1.23B14,2013-12-19 18:26:00,
2013-12-19 18:36:00,36.1,30.6,29.36,North,0,0.0,4.0,80,0.00,,,0.04,WeatherCatV1.23B14,2013-12-19 18:36:00,
2013-12-19 18:46:00,36.3,30.4,29.36,SE,135,8.3,8.3,79,0.00,,,0.04,WeatherCatV1.23B14,2013-12-19 18:46:00,
2013-12-19 18:56:00,36.3,30.4,29.36,SSE,157,0.0,4.7,79,0.00,,,0.04,WeatherCatV1.23B14,2013-12-19 18:56:00,
2013-12-19 19:06:00,36.3,30.4,29.36,ENE,67,0.0,4.2,79,0.00,,,0.04,WeatherCatV1.23B14,2013-12-19 19:06:00,
2013-12-19 19:16:00,36.3,30.7,29.37,SSE,157,0.0,0.0,80,0.00,,,0.04,WeatherCatV1.23B14,2013-12-19 19:16:00,
2013-12-19 19:26:00,36.3,30.7,29.37,WSW,247,0.0,0.0,80,0.00,,,0.04,WeatherCatV1.23B14,2013-12-19 19:26:00,
2013-12-19 19:36:00,36.3,30.7,29.38,SE,135,4.0,9.6,80,0.00,,,0.04,WeatherCatV1.23B14,2013-12-19 19:36:00,
2013-12-19 19:46:00,36.1,30.6,29.37,SE,135,0.0,0.0,80,0.00,,,0.04,WeatherCatV1.23B14,2013-12-19 19:46:00,
2013-12-19 19:56:00,36.3,30.7,29.38,North,0,0.0,12.5,80,0.00,,,0.04,WeatherCatV1.23B14,2013-12-19 19:56:00,
2013-12-19 20:06:00,36.3,30.7,29.39,ESE,112,0.0,0.0,80,0.00,,,0.04,WeatherCatV1.23B14,2013-12-19 20:06:00,
2013-12-19 20:16:00,37.0,31.3,29.40,SE,135,2.2,2.5,80,0.00,,,0.04,WeatherCatV1.23B14,2013-12-19 20:16:00,
2013-12-19 20:26:00,37.2,31.6,29.40,SSW,202,0.0,2.9,80,0.00,,,0.04,WeatherCatV1.23B14,2013-12-19 20:26:00,
2013-12-19 20:36:00,37.6,31.7,29.40,SE,135,5.8,5.8,79,0.00,,,0.04,WeatherCatV1.23B14,2013-12-19 20:36:00,
2013-12-19 20:46:00,37.6,31.7,29.39,South,180,6.3,6.3,79,0.00,,,0.04,WeatherCatV1.23B14,2013-12-19 20:46:00,
2013-12-19 20:56:00,37.2,31.3,29.39,SE,135,0.0,0.0,79,0.00,,,0.04,WeatherCatV1.23B14,2013-12-19 20:56:00,
2013-12-19 21:06:00,36.9,31.3,29.40,SE,135,0.0,2.7,80,0.00,,,0.04,WeatherCatV1.23B14,2013-12-19 21:06:00,
2013-12-19 21:16:00,36.5,31.2,29.40,SSE,157,0.0,8.1,81,0.00,,,0.04,WeatherCatV1.23B14,2013-12-19 21:16:00,
2013-12-19 21:26:00,36.5,31.2,29.40,SSW,202,0.0,0.0,81,0.00,,,0.04,WeatherCatV1.23B14,2013-12-19 21:26:00,
2013-12-19 21:36:00,36.5,31.2,29.42,South,180,0.0,4.0,81,0.00,,,0.04,WeatherCatV1.23B14,2013-12-19 21:36:00,
2013-12-19 21:46:00,36.9,31.3,29.41,SSE,157,0.0,7.8,80,0.00,,,0.04,WeatherCatV1.23B14,2013-12-19 21:46:00,
2013-12-19 21:56:00,36.7,31.1,29.42,NW,315,0.0,3.8,80,0.00,,,0.04,WeatherCatV1.23B14,2013-12-19 21:56:00,
2013-12-19 22:06:00,36.7,31.1,29.42,West,270,0.0,0.9,80,0.00,,,0.04,WeatherCatV1.23B14,2013-12-19 22:06:00,
2013-12-19 22:16:00,36.5,31.2,29.43,SSE,157,0.0,0.0,81,0.00,,,0.04,WeatherCatV1.23B14,2013-12-19 22:16:00,
2013-12-19 22:26:00,36.3,31.0,29.43,SSW,202,0.0,4.0,81,0.00,,,0.04,WeatherCatV1.23B14,2013-12-19 22:26:00,
2013-12-19 22:36:00,36.7,31.4,29.43,WSW,247,2.5,2.5,81,0.00,,,0.04,WeatherCatV1.23B14,2013-12-19 22:36:00,
2013-12-19 22:46:00,36.9,31.6,29.44,SSE,157,0.0,3.8,81,0.00,,,0.04,WeatherCatV1.23B14,2013-12-19 22:46:00,
2013-12-19 22:56:00,37.0,31.8,29.45,SSE,157,0.0,5.4,81,0.00,,,0.04,WeatherCatV1.23B14,2013-12-19 22:56:00,
2013-12-19 23:06:00,37.0,31.8,29.45,South,180,0.0,0.0,81,0.00,,,0.04,WeatherCatV1.23B14,2013-12-19 23:06:00,
2013-12-19 23:16:00,37.2,31.9,29.46,SE,135,0.0,3.4,81,0.00,,,0.04,WeatherCatV1.23B14,2013-12-19 23:16:00,
2013-12-19 23:26:00,37.2,31.6,29.46,West,270,0.0,2.9,80,0.00,,,0.04,WeatherCatV1.23B14,2013-12-19 23:26:00,
2013-12-19 23:36:00,37.2,31.6,29.46,SSE,157,5.1,5.1,80,0.00,,,0.04,WeatherCatV1.23B14,2013-12-19 23:36:00,
2013-12-19 23:46:00,37.0,31.8,29.47,WSW,247,0.0,6.3,81,0.00,,,0.04,WeatherCatV1.23B14,2013-12-19 23:46:00,
2013-12-19 23:56:00,37.2,31.9,29.47,South,180,0.9,2.2,81,0.00,,,0.04,WeatherCatV1.23B14,2013-12-19 23:56:00,